createdAt,value
2022-10-23T00:02:41.128Z,11.85
2022-10-23T00:07:40.153Z,12.63
2022-10-23T00:12:39.622Z,11.45
2022-10-23T00:17:39.391Z,11.98
2022-10-23T00:22:38.964Z,13.48
2022-10-23T00:27:37.839Z,14.63
2022-10-23T00:32:37.133Z,15.90
2022-10-23T00:37:35.934Z,13.63
2022-10-23T00:42:34.850Z,13.52
2022-10-23T00:47:33.559Z,12.95
2022-10-23T00:52:33.596Z,11.95
2022-10-23T00:57:32.360Z,12.75
2022-10-23T01:02:31.195Z,12.27
2022-10-23T01:07:42.476Z,11.13
2022-10-23T01:12:47.636Z,11.07
2022-10-23T01:17:56.729Z,10.35
2022-10-23T01:23:22.442Z,11.35
2022-10-23T01:28:30.482Z,11.05
2022-10-23T01:33:37.868Z,12.32
2022-10-23T01:38:42.512Z,11.02
2022-10-23T01:43:51.895Z,10.52
2022-10-23T01:48:54.999Z,11.00
2022-10-23T01:53:58.355Z,10.52
2022-10-23T01:59:01.147Z,9.90
2022-10-23T02:04:08.774Z,10.07
2022-10-23T02:09:07.749Z,11.18
2022-10-23T02:14:17.087Z,10.88
2022-10-23T02:19:29.028Z,10.38
2022-10-23T02:25:06.441Z,12.32
2022-10-23T02:35:40.665Z,11.88
2022-10-23T02:40:52.356Z,10.38
2022-10-23T02:46:23.444Z,10.43
2022-10-23T02:51:30.183Z,12.38
2022-10-23T02:56:49.598Z,10.95
2022-10-23T03:02:00.733Z,13.32
2022-10-23T03:07:00.009Z,13.48
2022-10-23T03:11:58.678Z,13.27
2022-10-23T03:16:57.375Z,12.45
2022-10-23T03:21:57.485Z,11.73
2022-10-23T03:26:56.210Z,13.57
2022-10-23T03:32:02.084Z,11.65
2022-10-23T03:37:01.092Z,11.25
2022-10-23T03:41:59.888Z,11.98
2022-10-23T03:47:00.338Z,13.85
2022-10-23T03:51:59.512Z,11.65
2022-10-23T03:56:59.099Z,12.13
2022-10-23T04:01:58.484Z,12.43
2022-10-23T04:06:57.272Z,12.15
2022-10-23T04:11:56.424Z,11.77
2022-10-23T04:16:59.010Z,12.73
2022-10-23T04:21:59.517Z,13.68
2022-10-23T04:26:58.177Z,12.00
2022-10-23T04:31:59.558Z,14.25
2022-10-23T04:36:58.286Z,12.45
2022-10-23T04:41:56.926Z,13.05
2022-10-23T04:46:57.582Z,15.00
2022-10-23T04:51:56.560Z,14.15
2022-10-23T04:57:14.112Z,12.05
2022-10-23T05:02:27.834Z,13.52
2022-10-23T05:07:27.106Z,13.02
2022-10-23T05:12:34.691Z,13.18
2022-10-23T05:17:36.697Z,13.27
2022-10-23T05:22:39.362Z,13.10
2022-10-23T05:27:42.214Z,13.52
2022-10-23T05:32:44.290Z,13.05
2022-10-23T05:37:47.079Z,13.07
2022-10-23T05:42:51.383Z,13.77
2022-10-23T05:47:54.982Z,13.57
2022-10-23T05:53:20.267Z,13.85
2022-10-23T05:58:43.702Z,13.13
2022-10-23T06:03:59.921Z,13.00
2022-10-23T06:09:15.669Z,12.48
2022-10-23T06:14:14.526Z,13.50
2022-10-23T06:19:13.883Z,13.20
2022-10-23T06:24:14.523Z,12.63
2022-10-23T06:29:27.574Z,13.27
2022-10-23T06:34:27.012Z,11.85
2022-10-23T06:39:29.750Z,8.45
2022-10-23T06:44:40.133Z,9.80
2022-10-23T06:49:42.933Z,8.15
2022-10-23T06:54:41.685Z,9.15
2022-10-23T06:59:51.150Z,10.77
2022-10-23T07:04:50.651Z,10.05
2022-10-23T07:09:51.431Z,10.02
2022-10-23T07:14:56.931Z,11.07
2022-10-23T07:19:56.106Z,10.20
2022-10-23T07:24:55.732Z,10.88
2022-10-23T07:30:00.446Z,11.23
2022-10-23T07:35:03.497Z,9.80
2022-10-23T07:40:06.979Z,9.30
2022-10-23T07:45:12.935Z,9.52
2022-10-23T07:50:15.809Z,10.05
2022-10-23T07:55:14.760Z,9.90
2022-10-23T08:00:21.028Z,8.48
2022-10-23T08:05:28.454Z,9.20
2022-10-23T08:10:32.519Z,8.73
2022-10-23T08:15:31.679Z,8.32
2022-10-23T08:20:42.129Z,8.13
2022-10-23T08:25:41.197Z,7.82
2022-10-23T08:30:41.296Z,8.15
2022-10-23T08:35:40.551Z,7.20
2022-10-23T08:40:45.061Z,6.93
2022-10-23T08:46:09.565Z,8.15
2022-10-23T08:51:41.729Z,7.00
2022-10-23T08:56:54.815Z,6.35
2022-10-23T09:02:01.743Z,6.50
2022-10-23T09:07:10.904Z,7.63
2022-10-23T09:17:20.143Z,6.10
2022-10-23T09:22:18.912Z,5.78
2022-10-23T09:27:20.632Z,5.38
2022-10-23T09:32:20.759Z,5.57
2022-10-23T09:37:38.113Z,4.97
2022-10-23T09:43:01.718Z,4.60
2022-10-23T09:48:14.768Z,4.50
2022-10-23T09:53:18.476Z,4.57
2022-10-23T09:58:33.408Z,5.18
2022-10-23T10:03:32.760Z,5.68
2022-10-23T10:08:53.122Z,4.88
2022-10-23T10:14:00.815Z,4.40
2022-10-23T10:19:11.237Z,4.50
2022-10-23T10:24:19.981Z,5.18
2022-10-23T10:29:57.545Z,4.68
2022-10-23T10:35:14.662Z,4.78
2022-10-23T10:40:30.790Z,5.18
2022-10-23T10:45:39.332Z,5.22
2022-10-23T10:51:10.527Z,5.43
2022-10-23T10:56:20.501Z,4.40
2022-10-23T11:01:28.513Z,4.72
2022-10-23T11:06:31.867Z,4.85
2022-10-23T11:11:40.911Z,4.60
2022-10-23T11:21:47.101Z,4.18
2022-10-23T11:27:37.525Z,3.90
2022-10-23T11:33:08.571Z,3.72
2022-10-23T11:38:13.076Z,3.92
2022-10-23T11:43:11.897Z,4.60
2022-10-23T11:48:24.088Z,4.28
2022-10-23T11:53:43.298Z,4.47
2022-10-23T11:58:45.793Z,4.90
2022-10-23T12:04:03.255Z,5.22
2022-10-23T12:09:06.855Z,4.60
2022-10-23T12:14:05.622Z,4.30
2022-10-23T12:19:21.185Z,5.30
2022-10-23T12:24:43.336Z,6.00
2022-10-23T12:29:56.598Z,5.05
2022-10-23T12:35:17.067Z,4.97
2022-10-23T12:40:15.895Z,5.18
2022-10-23T12:45:21.460Z,5.47
2022-10-23T12:50:29.013Z,4.60
2022-10-23T12:55:35.027Z,5.40
2022-10-23T13:00:34.920Z,6.07
2022-10-23T13:05:33.631Z,5.78
2022-10-23T13:10:33.318Z,6.07
2022-10-23T13:15:42.559Z,5.68
2022-10-23T13:20:51.564Z,6.03
2022-10-23T13:26:33.089Z,5.40
2022-10-23T13:31:35.496Z,5.93
2022-10-23T13:36:37.301Z,5.45
2022-10-23T13:41:43.048Z,6.40
2022-10-23T13:46:42.845Z,6.20
2022-10-23T13:51:54.639Z,6.50
2022-10-23T13:56:54.904Z,7.47
2022-10-23T14:01:53.695Z,6.70
2022-10-23T14:06:58.393Z,5.90
2022-10-23T14:11:57.088Z,6.22
2022-10-23T14:16:55.976Z,6.15
2022-10-23T14:21:54.665Z,5.93
2022-10-23T14:26:53.279Z,6.57
2022-10-23T14:31:52.260Z,5.97
2022-10-23T14:37:03.890Z,6.60
2022-10-23T14:42:06.651Z,6.03
2022-10-23T14:47:05.951Z,6.35
2022-10-23T14:52:04.877Z,7.25
2022-10-23T14:57:04.287Z,6.97
2022-10-23T15:02:03.060Z,6.60
2022-10-23T15:07:01.713Z,7.28
2022-10-23T15:12:00.651Z,7.45
2022-10-23T15:16:59.435Z,8.07
2022-10-23T15:21:58.183Z,7.38
2022-10-23T15:26:57.212Z,7.45
2022-10-23T15:31:58.739Z,7.38
2022-10-23T15:36:57.758Z,7.35
2022-10-23T15:41:57.158Z,8.13
2022-10-23T15:46:59.320Z,8.45
2022-10-23T15:51:58.519Z,7.80
2022-10-23T15:56:57.804Z,8.20
2022-10-23T16:01:57.517Z,7.97
2022-10-23T16:06:56.882Z,8.93
2022-10-23T16:11:55.631Z,7.72
2022-10-23T16:16:54.263Z,8.23
2022-10-23T16:21:53.034Z,8.13
2022-10-23T16:26:53.427Z,9.00
2022-10-23T16:31:56.956Z,8.30
2022-10-23T16:36:55.734Z,8.65
2022-10-23T16:42:27.147Z,8.73
2022-10-23T16:47:42.006Z,8.70
2022-10-23T16:52:40.754Z,8.80
2022-10-23T16:57:39.600Z,8.65
2022-10-23T17:02:38.443Z,8.90
2022-10-23T17:07:37.285Z,9.55
2022-10-23T17:12:36.145Z,10.30
2022-10-23T17:17:34.820Z,9.88
2022-10-23T17:22:35.562Z,11.73
2022-10-23T17:27:34.212Z,12.52
2022-10-23T17:32:35.817Z,12.02
2022-10-23T17:37:34.625Z,12.85
2022-10-23T17:42:33.407Z,13.93
2022-10-23T17:47:32.183Z,14.23
2022-10-23T17:52:30.971Z,13.40
2022-10-23T17:57:29.709Z,13.32
2022-10-23T18:02:28.715Z,13.55
2022-10-23T18:07:27.532Z,13.57
2022-10-23T18:12:26.222Z,14.13
2022-10-23T18:17:24.961Z,15.63
2022-10-23T18:22:23.668Z,14.70
2022-10-23T18:27:22.323Z,17.63
2022-10-23T18:32:21.004Z,15.02
2022-10-23T18:37:19.792Z,16.02
2022-10-23T18:42:18.431Z,15.52
2022-10-23T18:47:17.327Z,15.63
2022-10-23T18:52:16.004Z,14.25
2022-10-23T18:57:14.754Z,14.30
2022-10-23T19:02:13.570Z,13.32
2022-10-23T19:07:12.420Z,14.30
2022-10-23T19:12:11.545Z,14.85
2022-10-23T19:17:21.094Z,16.65
2022-10-23T19:22:19.808Z,15.93
2022-10-23T19:27:19.824Z,15.50
2022-10-23T19:32:18.698Z,16.50
2022-10-23T19:37:17.387Z,15.20
2022-10-23T19:42:16.106Z,14.15
2022-10-23T19:47:15.242Z,15.18
2022-10-23T19:52:14.554Z,14.45
2022-10-23T19:57:13.269Z,13.13
2022-10-23T20:02:12.124Z,15.23
2022-10-23T20:07:11.265Z,15.75
2022-10-23T20:12:10.132Z,13.95
2022-10-23T20:17:09.182Z,13.20
2022-10-23T20:22:08.560Z,14.73
2022-10-23T20:27:09.634Z,11.68
2022-10-23T20:32:08.839Z,11.32
2022-10-23T20:37:08.212Z,12.15
2022-10-23T20:42:07.621Z,11.15
2022-10-23T20:47:06.385Z,12.02
2022-10-23T20:52:05.433Z,12.35
2022-10-23T20:57:04.489Z,11.88
2022-10-23T21:02:03.577Z,11.35
2022-10-23T21:07:09.914Z,10.20
2022-10-23T21:12:10.150Z,11.27
2022-10-23T21:17:11.093Z,11.13
2022-10-23T21:22:10.454Z,11.93
2022-10-23T21:27:09.268Z,11.48
2022-10-23T21:32:07.970Z,11.02
2022-10-23T21:37:13.027Z,9.70
2022-10-23T21:42:13.990Z,10.05
2022-10-23T21:47:12.735Z,10.18
2022-10-23T21:52:13.175Z,10.32
2022-10-23T21:57:14.727Z,11.32
2022-10-23T22:02:13.567Z,11.55
2022-10-23T22:07:14.948Z,11.95
2022-10-23T22:12:13.886Z,10.55
2022-10-23T22:17:12.776Z,11.48
2022-10-23T22:22:11.553Z,11.75
2022-10-23T22:27:10.238Z,13.10
2022-10-23T22:32:09.001Z,12.10
2022-10-23T22:37:09.330Z,13.05
2022-10-23T22:42:08.127Z,11.65
2022-10-23T22:47:07.162Z,11.90
2022-10-23T22:52:05.921Z,11.35
2022-10-23T22:57:04.571Z,11.30
2022-10-23T23:02:03.572Z,12.82
2022-10-23T23:07:02.179Z,12.43
2022-10-23T23:12:00.922Z,12.65
2022-10-23T23:16:59.601Z,12.25
2022-10-23T23:21:59.525Z,13.65
2022-10-23T23:26:58.226Z,12.57
2022-10-23T23:31:57.104Z,14.98
2022-10-23T23:36:55.776Z,13.43
2022-10-23T23:41:54.489Z,13.75
2022-10-23T23:46:53.180Z,14.57
2022-10-23T23:51:52.410Z,13.85
2022-10-23T23:56:51.091Z,15.38
